KBML/BML METAR and TAF weather

Enter ICAO airport designator
Station Type Date Time Source
KBML METAR 2022/07/01 01:52 UTC NOAA

KBML 010152Z AUTO 00000KT 10SM CLR 13/10 A3014 RMK AO2 SLP206 T01280100


Station Type Date Time Source
KBML Decoded METAR 2022/07/01 01:52 UTC NOAA

BERLIN MUNICIPAL AIRPORT, NH, United States (KBML) 44-35N 71-11W 345M
Jun 30, 2022 - 09:52 PM EDT / 2022.07.01 0152 UTC
Wind: Calm:0
Visibility: 10 mile(s):0
Sky conditions: clear
Temperature: 55.0 F (12.8 C)
Dew Point: 50.0 F (10.0 C)
Relative Humidity: 83%
Pressure (altimeter): 30.14 in. Hg (1020 hPa)
ob: KBML 010152Z AUTO 00000KT 10SM CLR 13/10 A3014 RMK AO2 SLP206 T01280100
cycle: 2

Station Type Date Time Source
KBML TAF UTC NOAA

Error!

Example: see airport list